Cowpens, SC

8:52 AM EST on December 19, 2014 (GMT -0500)
Hillbrook Forest | Change Station
CLOSE
Current Station
Personal Weather Station
Location: Spartanburg, SC
Elevation: 722 ft
Nearby Weather Stations

Elev 722 ft 34.97 °N, 81.88 °W | Updated 4 minutes ago

Clear
Clear
31.5 °F
Feels Like 32 °F
N
0.0
Wind Variable Wind from NE

Today
High -- | Low -- °F
--% Chance of Precip.
Yesterday
High -- | Low -- °F
Precip. -- in
7:30 AM 5:18 PM
Waning Crescent, 8% visible
Pressure 30.16 in
Visibility 10.0 miles
Clouds Clear
Windchill 32 °F
Dew Point 31 °F
Humidity 99%
Rainfall 0.00 in
Snow Depth Not available.
UV 1 out of 12
Pollen 1.40 out of 12
Air Quality Not available.
Flu Activity Not available.
METAR KSPA 191335Z AUTO 00000KT 10SM CLR 06/00 A3016 RMK AO2

More Conditions Fewer Conditions

Pressure 30.16 in
Visibility 10.0 miles
Clouds Clear
Windchill 32 °F
Dew Point 31 °F
Humidity 99%
Rainfall 0.00 in
Snow Depth Not available.
UV 1 out of 12
Pollen 1.40 out of 12
Air Quality Not available.
Flu Activity Not available.
METAR KSPA 191335Z AUTO 00000KT 10SM CLR 06/00 A3016 RMK AO2

More Conditions Fewer Conditions

10-Day Weather Forecast

Almanac

Astronomy

Dec. 19, 2014 Rise Set
Actual Time
Civil Twilight
Nautical Twilight
Astronomical Twilight
Moon
Length of Visible Light
Length of Day
Tomorrow will be .
, % of the Moon is Illuminated

Today's Extremes

State Highs State Lows

Community

WunderPhotos

Upload Photos

1,778,987 photos uploaded!

WunderBlogs® & News

Nearby

Air Quality

  Air Quality AQ Index Pollutant
Not available.

Snow Depth

Station Depth Elevation

Earthquake Activity

City Distance Mag. Time & Date
Minimum magnitude displayed is 2.5.

Coastal Water Temperatures

Place Temperature

Nearby Weather Stations